createdAt,value
2023-02-03T00:00:01.046Z,13.38
2023-02-03T00:02:28.133Z,11.15
2023-02-03T00:04:55.373Z,17.00
2023-02-03T00:07:22.940Z,14.23
2023-02-03T00:09:50.174Z,14.05
2023-02-03T00:12:17.250Z,13.02
2023-02-03T00:14:45.264Z,12.38
2023-02-03T00:17:12.348Z,15.68
2023-02-03T00:19:39.400Z,14.73
2023-02-03T00:22:06.492Z,12.40
2023-02-03T00:24:33.611Z,13.90
2023-02-03T00:27:00.688Z,13.00
2023-02-03T00:29:27.898Z,11.43
2023-02-03T00:31:55.141Z,16.45
2023-02-03T00:34:22.292Z,8.90
2023-02-03T00:36:49.396Z,11.88
2023-02-03T00:39:16.791Z,12.13
2023-02-03T00:41:43.963Z,12.13
2023-02-03T00:44:11.126Z,10.35
2023-02-03T00:46:38.362Z,16.75
2023-02-03T00:49:05.542Z,16.17
2023-02-03T00:51:33.784Z,12.27
2023-02-03T00:54:03.485Z,13.60
2023-02-03T00:56:30.632Z,10.32
2023-02-03T00:58:57.677Z,13.13
2023-02-03T01:01:24.810Z,9.27
2023-02-03T01:03:52.017Z,10.52
2023-02-03T01:06:21.047Z,10.35
2023-02-03T01:08:48.934Z,15.45
2023-02-03T01:11:25.095Z,13.07
2023-02-03T01:13:53.355Z,11.82
2023-02-03T01:16:22.747Z,8.23
2023-02-03T01:18:50.648Z,10.48
2023-02-03T01:21:21.445Z,9.23
2023-02-03T01:23:48.637Z,13.77
2023-02-03T01:26:17.491Z,8.45
2023-02-03T01:28:44.904Z,9.55
2023-02-03T01:31:24.577Z,14.00
2023-02-03T01:33:54.391Z,8.38
2023-02-03T01:36:25.018Z,10.57
2023-02-03T01:38:52.152Z,9.65
2023-02-03T01:41:21.908Z,11.07
2023-02-03T01:43:51.918Z,9.95
2023-02-03T01:46:30.823Z,8.60
2023-02-03T01:49:38.349Z,10.73
2023-02-03T01:52:06.066Z,14.02
2023-02-03T01:54:38.419Z,9.05
2023-02-03T01:57:20.119Z,10.48
2023-02-03T01:59:48.354Z,10.75
2023-02-03T02:02:15.800Z,11.57
2023-02-03T02:05:08.378Z,8.70
2023-02-03T02:07:37.890Z,11.00
2023-02-03T02:10:06.265Z,9.52
2023-02-03T02:12:33.378Z,15.55
2023-02-03T02:15:00.547Z,8.90
2023-02-03T02:18:00.198Z,8.30
2023-02-03T02:20:52.619Z,10.82
2023-02-03T02:23:28.301Z,10.13
2023-02-03T02:26:13.157Z,12.40
2023-02-03T02:28:58.101Z,7.03
2023-02-03T02:31:42.173Z,11.05
2023-02-03T02:34:22.873Z,8.68
2023-02-03T02:37:23.717Z,9.60
2023-02-03T02:40:10.189Z,8.20
2023-02-03T02:43:05.381Z,6.55
2023-02-03T02:45:46.686Z,12.77
2023-02-03T02:48:32.313Z,9.57
2023-02-03T02:51:02.596Z,8.65
2023-02-03T02:53:35.184Z,6.78
2023-02-03T02:56:06.462Z,10.20
2023-02-03T02:58:36.585Z,10.93
2023-02-03T03:01:04.049Z,9.68
2023-02-03T03:03:32.130Z,11.02
2023-02-03T03:06:17.317Z,8.43
2023-02-03T03:08:49.609Z,8.32
2023-02-03T03:11:17.741Z,9.80
2023-02-03T03:13:51.801Z,8.13
2023-02-03T03:16:23.425Z,4.82
2023-02-03T03:19:07.225Z,9.70
2023-02-03T03:21:46.210Z,12.20
2023-02-03T03:24:20.338Z,5.72
2023-02-03T03:27:03.153Z,10.05
2023-02-03T03:29:38.492Z,6.68
2023-02-03T03:32:06.093Z,6.93
2023-02-03T03:34:33.525Z,9.85
2023-02-03T03:37:11.861Z,6.28
2023-02-03T03:39:57.944Z,12.98
2023-02-03T03:42:31.872Z,11.80
2023-02-03T03:45:08.539Z,7.75
2023-02-03T03:47:48.730Z,5.82
2023-02-03T03:50:24.062Z,8.15
2023-02-03T03:52:53.239Z,9.82
2023-02-03T03:55:21.802Z,10.82
2023-02-03T03:58:14.985Z,8.48
2023-02-03T04:00:43.924Z,6.15
2023-02-03T04:03:20.819Z,10.32
2023-02-03T04:05:48.287Z,8.73
2023-02-03T04:08:15.278Z,8.55
2023-02-03T04:10:44.123Z,8.63
2023-02-03T04:13:12.044Z,5.80
2023-02-03T04:15:39.374Z,10.60
2023-02-03T04:18:06.876Z,9.48
2023-02-03T04:20:34.541Z,7.22
2023-02-03T04:23:01.722Z,9.02
2023-02-03T04:25:28.792Z,9.02
2023-02-03T04:27:55.996Z,10.05
2023-02-03T04:30:23.719Z,8.98
2023-02-03T04:32:50.762Z,8.18
2023-02-03T04:35:18.081Z,7.70
2023-02-03T04:37:45.272Z,10.05
2023-02-03T04:40:13.255Z,9.13
2023-02-03T04:42:41.391Z,9.73
2023-02-03T04:45:10.783Z,10.15
2023-02-03T04:47:38.442Z,7.72
2023-02-03T04:50:05.997Z,10.65
2023-02-03T04:52:33.263Z,10.18
2023-02-03T04:55:00.395Z,8.02
2023-02-03T04:57:27.559Z,9.90
2023-02-03T04:59:54.555Z,11.95
2023-02-03T05:02:21.574Z,7.32
2023-02-03T05:04:48.643Z,7.03
2023-02-03T05:07:15.684Z,7.18
2023-02-03T05:09:42.687Z,7.97
2023-02-03T05:12:09.728Z,6.40
2023-02-03T05:14:36.858Z,6.47
2023-02-03T05:17:03.923Z,8.23
2023-02-03T05:19:30.959Z,7.72
2023-02-03T05:21:57.939Z,7.50
2023-02-03T05:24:24.982Z,8.65
2023-02-03T05:26:51.968Z,6.13
2023-02-03T05:29:19.074Z,8.02
2023-02-03T05:31:46.343Z,5.28
2023-02-03T05:34:13.408Z,11.85
2023-02-03T05:36:40.505Z,6.85
2023-02-03T05:39:07.708Z,7.90
2023-02-03T05:41:53.157Z,7.63
2023-02-03T05:44:25.280Z,8.57
2023-02-03T05:46:57.079Z,12.82
2023-02-03T05:49:24.826Z,7.72
2023-02-03T05:51:53.386Z,9.43
2023-02-03T05:54:20.680Z,7.40
2023-02-03T05:56:48.173Z,7.90
2023-02-03T05:59:15.352Z,6.57
2023-02-03T06:01:42.605Z,9.50
2023-02-03T06:04:09.795Z,8.25
2023-02-03T06:06:37.007Z,14.88
2023-02-03T06:09:07.661Z,5.00
2023-02-03T06:11:36.097Z,7.30
2023-02-03T06:14:04.058Z,7.43
2023-02-03T06:16:31.379Z,8.05
2023-02-03T06:18:59.781Z,11.40
2023-02-03T06:21:26.976Z,6.63
2023-02-03T06:23:54.899Z,9.98
2023-02-03T06:26:21.889Z,9.65
2023-02-03T06:28:49.015Z,11.07
2023-02-03T06:31:16.234Z,5.38
2023-02-03T06:33:43.335Z,8.45
2023-02-03T06:36:10.679Z,5.00
2023-02-03T06:38:37.805Z,8.38
2023-02-03T06:41:04.973Z,5.28
2023-02-03T06:43:32.474Z,7.78
2023-02-03T06:45:59.493Z,4.95
2023-02-03T06:48:26.925Z,5.93
2023-02-03T06:50:54.020Z,5.47
2023-02-03T06:53:21.113Z,7.85
2023-02-03T06:55:48.218Z,4.93
2023-02-03T06:58:15.484Z,7.75
2023-02-03T07:00:42.511Z,10.25
2023-02-03T07:03:09.606Z,4.47
2023-02-03T07:05:37.109Z,5.68
2023-02-03T07:08:04.276Z,5.47
2023-02-03T07:10:31.417Z,10.02
2023-02-03T07:13:03.936Z,6.43
2023-02-03T07:15:31.107Z,5.45
2023-02-03T07:17:58.167Z,12.23
2023-02-03T07:20:25.605Z,7.60
2023-02-03T07:22:56.411Z,6.47
2023-02-03T07:25:24.381Z,7.07
2023-02-03T07:27:52.031Z,5.43
2023-02-03T07:30:19.452Z,6.65
2023-02-03T07:32:50.966Z,5.95
2023-02-03T07:35:18.826Z,11.07
2023-02-03T07:37:46.195Z,7.60
2023-02-03T07:40:16.106Z,6.03
2023-02-03T07:42:44.389Z,5.60
2023-02-03T07:45:12.806Z,7.15
2023-02-03T07:47:41.430Z,7.85
2023-02-03T07:50:09.340Z,5.35
2023-02-03T07:52:37.187Z,5.65
2023-02-03T07:55:05.134Z,8.18
2023-02-03T07:57:32.391Z,7.07
2023-02-03T07:59:59.452Z,3.75
2023-02-03T08:02:26.519Z,6.88
2023-02-03T08:04:53.698Z,6.68
2023-02-03T08:07:20.823Z,7.75
2023-02-03T08:09:47.902Z,5.68
2023-02-03T08:12:15.073Z,8.38
2023-02-03T08:14:42.181Z,7.93
2023-02-03T08:17:09.297Z,6.85
2023-02-03T08:19:36.500Z,6.68
2023-02-03T08:22:03.558Z,4.53
2023-02-03T08:24:30.634Z,6.38
2023-02-03T08:26:57.787Z,6.57
2023-02-03T08:29:24.865Z,5.63
2023-02-03T08:31:52.020Z,6.32
2023-02-03T08:34:19.257Z,8.27
2023-02-03T08:36:46.427Z,5.63
2023-02-03T08:39:13.593Z,12.55
2023-02-03T08:41:40.677Z,8.52
2023-02-03T08:44:07.757Z,4.88
2023-02-03T08:46:36.512Z,6.55
2023-02-03T08:49:03.768Z,4.55
2023-02-03T08:51:30.856Z,6.07
2023-02-03T08:53:57.941Z,5.63
2023-02-03T08:56:26.729Z,3.97
2023-02-03T08:58:55.912Z,6.30
2023-02-03T09:01:23.135Z,7.50
2023-02-03T09:03:50.272Z,9.65
2023-02-03T09:06:17.424Z,6.70
2023-02-03T09:08:46.178Z,5.93
2023-02-03T09:11:17.081Z,6.15
2023-02-03T09:13:48.746Z,5.20
2023-02-03T09:16:18.503Z,6.82
2023-02-03T09:18:46.578Z,8.48
2023-02-03T09:21:31.519Z,6.57
2023-02-03T09:24:03.961Z,5.55
2023-02-03T09:26:31.319Z,4.28
2023-02-03T09:28:58.848Z,6.95
2023-02-03T09:31:26.030Z,5.07
2023-02-03T09:33:53.138Z,9.35
2023-02-03T09:36:20.262Z,5.40
2023-02-03T09:38:47.445Z,6.80
2023-02-03T09:41:25.511Z,7.40
2023-02-03T09:44:11.614Z,7.57
2023-02-03T09:46:44.687Z,5.07
2023-02-03T09:49:14.690Z,7.97
2023-02-03T09:51:47.431Z,6.10
2023-02-03T09:54:24.778Z,7.57
2023-02-03T09:56:55.841Z,7.50
2023-02-03T09:59:23.351Z,7.78
2023-02-03T10:01:53.491Z,4.80
2023-02-03T10:04:37.967Z,6.43
2023-02-03T10:07:36.857Z,6.30
2023-02-03T10:10:30.943Z,9.88
2023-02-03T10:13:06.761Z,7.50
2023-02-03T10:15:53.201Z,4.57
2023-02-03T10:18:28.732Z,8.85
2023-02-03T10:21:03.738Z,7.32
2023-02-03T10:23:40.143Z,5.47
2023-02-03T10:26:14.305Z,9.20
2023-02-03T10:31:24.403Z,11.65
2023-02-03T10:34:11.832Z,7.82
2023-02-03T10:36:58.843Z,7.78
2023-02-03T10:39:46.138Z,9.07
2023-02-03T10:42:14.280Z,6.82
2023-02-03T10:44:45.122Z,8.30
2023-02-03T10:47:36.427Z,5.53
2023-02-03T10:50:34.076Z,6.72
2023-02-03T10:53:34.401Z,11.85
2023-02-03T10:56:01.856Z,6.60
2023-02-03T10:58:31.337Z,7.63
2023-02-03T11:01:13.457Z,8.18
2023-02-03T11:03:54.062Z,8.55
2023-02-03T11:06:22.235Z,8.82
2023-02-03T11:08:51.351Z,6.70
2023-02-03T11:11:25.245Z,6.68
2023-02-03T11:14:11.736Z,11.02
2023-02-03T11:16:41.211Z,7.43
2023-02-03T11:19:19.466Z,5.80
2023-02-03T11:21:53.201Z,11.05
2023-02-03T11:24:23.989Z,11.10
2023-02-03T11:26:56.370Z,9.25
2023-02-03T11:29:29.472Z,7.70
2023-02-03T11:32:02.703Z,8.57
2023-02-03T11:34:34.586Z,8.97
2023-02-03T11:37:28.455Z,10.38
2023-02-03T11:40:15.914Z,11.13
2023-02-03T11:42:45.683Z,11.57
2023-02-03T11:45:26.835Z,8.68
2023-02-03T11:48:15.843Z,14.65
2023-02-03T11:50:47.967Z,10.13
2023-02-03T11:53:42.307Z,12.10
2023-02-03T11:56:47.363Z,12.77
2023-02-03T11:59:39.919Z,12.32
2023-02-03T12:02:26.020Z,15.88
2023-02-03T12:05:20.631Z,18.20
2023-02-03T12:07:47.666Z,14.18
2023-02-03T12:10:42.460Z,15.98
2023-02-03T12:13:23.889Z,20.13
2023-02-03T12:16:09.790Z,18.80
2023-02-03T12:19:01.757Z,15.30
2023-02-03T12:21:51.668Z,20.33
2023-02-03T12:24:45.588Z,15.25
2023-02-03T12:27:31.312Z,19.80
2023-02-03T12:30:11.667Z,19.20
2023-02-03T12:32:50.003Z,26.30
2023-02-03T12:35:42.058Z,16.42
2023-02-03T12:38:14.649Z,18.50
2023-02-03T12:40:59.971Z,17.98
2023-02-03T12:43:30.236Z,21.13
2023-02-03T12:46:22.566Z,19.17
2023-02-03T12:48:55.802Z,17.92
2023-02-03T12:51:56.177Z,16.40
2023-02-03T12:54:39.917Z,20.48
2023-02-03T12:57:35.796Z,17.63
2023-02-03T13:00:36.480Z,16.45
2023-02-03T13:03:41.220Z,18.95
2023-02-03T13:06:32.559Z,18.70
2023-02-03T13:09:20.853Z,20.55
2023-02-03T13:12:08.328Z,18.52
2023-02-03T13:14:41.420Z,21.77
2023-02-03T13:17:13.780Z,22.40
2023-02-03T13:20:14.935Z,16.90
2023-02-03T13:22:42.232Z,17.33
2023-02-03T13:25:23.836Z,23.15
2023-02-03T13:28:07.852Z,23.00
2023-02-03T13:30:41.272Z,22.92
2023-02-03T13:33:40.042Z,19.83
2023-02-03T13:36:28.158Z,20.50
2023-02-03T13:39:01.200Z,22.40
2023-02-03T13:41:40.454Z,21.42
2023-02-03T13:44:13.191Z,22.73
2023-02-03T13:46:41.528Z,27.40
2023-02-03T13:49:09.963Z,22.52
2023-02-03T13:51:46.342Z,25.80
2023-02-03T13:54:27.312Z,25.95
2023-02-03T13:57:00.282Z,25.38
2023-02-03T13:59:33.289Z,29.10
2023-02-03T14:02:51.986Z,27.65
2023-02-03T14:05:58.060Z,26.77
2023-02-03T14:08:28.442Z,24.52
2023-02-03T14:11:32.701Z,25.58
2023-02-03T14:14:22.990Z,25.88
2023-02-03T14:16:55.369Z,26.52
2023-02-03T14:19:22.782Z,26.70
2023-02-03T14:21:55.205Z,26.45
2023-02-03T14:24:24.401Z,23.60
2023-02-03T14:26:54.324Z,30.52
2023-02-03T14:29:33.330Z,27.92
2023-02-03T14:32:06.946Z,26.80
2023-02-03T14:34:41.813Z,25.42
2023-02-03T14:37:30.932Z,30.20
2023-02-03T14:40:25.728Z,28.48
2023-02-03T14:43:30.201Z,27.23
2023-02-03T14:46:18.487Z,30.50
2023-02-03T14:49:10.767Z,24.75
2023-02-03T14:51:50.092Z,28.48
2023-02-03T14:54:17.387Z,20.50
2023-02-03T14:57:12.208Z,20.35
2023-02-03T14:59:51.136Z,26.15
2023-02-03T15:02:26.025Z,24.27
2023-02-03T15:05:14.917Z,17.58
2023-02-03T15:07:50.671Z,20.00
2023-02-03T15:10:45.142Z,19.15
2023-02-03T15:13:31.921Z,18.90
2023-02-03T15:16:05.225Z,18.67
2023-02-03T15:18:37.855Z,20.23
2023-02-03T15:21:05.394Z,16.10
2023-02-03T15:23:45.673Z,18.17
2023-02-03T15:26:15.285Z,15.48
2023-02-03T15:28:42.587Z,15.45
2023-02-03T15:31:23.979Z,16.20
2023-02-03T15:33:54.333Z,14.90
2023-02-03T15:36:28.048Z,15.18
2023-02-03T15:39:06.711Z,17.38
2023-02-03T15:41:34.178Z,11.00
2023-02-03T15:44:10.585Z,19.27
2023-02-03T15:46:49.135Z,13.88
2023-02-03T15:49:22.622Z,13.13
2023-02-03T15:52:04.396Z,12.98
2023-02-03T15:54:45.925Z,11.57
2023-02-03T15:57:29.001Z,22.05
2023-02-03T15:59:57.809Z,13.48
2023-02-03T16:02:39.561Z,14.50
2023-02-03T16:05:23.747Z,12.23
2023-02-03T16:07:52.543Z,12.48
2023-02-03T16:10:34.375Z,14.52
2023-02-03T16:13:21.976Z,13.43
2023-02-03T16:16:35.368Z,15.57
2023-02-03T16:19:12.769Z,12.98
2023-02-03T16:21:49.917Z,17.10
2023-02-03T16:24:42.669Z,19.67
2023-02-03T16:27:28.027Z,13.80
2023-02-03T16:30:39.635Z,14.70
2023-02-03T16:33:27.777Z,18.38
2023-02-03T16:36:14.886Z,13.45
2023-02-03T16:39:08.388Z,10.98
2023-02-03T16:41:55.562Z,13.13
2023-02-03T16:44:41.489Z,14.02
2023-02-03T16:47:53.310Z,16.25
2023-02-03T16:50:41.946Z,17.40
2023-02-03T16:53:23.436Z,17.80
2023-02-03T16:55:51.900Z,15.60
2023-02-03T16:58:20.445Z,13.88
2023-02-03T17:00:48.921Z,13.82
2023-02-03T17:03:21.294Z,13.48
2023-02-03T17:05:49.500Z,16.33
2023-02-03T17:08:20.020Z,15.05
2023-02-03T17:10:50.809Z,16.80
2023-02-03T17:13:20.926Z,21.40
2023-02-03T17:15:50.195Z,19.52
2023-02-03T17:18:17.680Z,18.08
2023-02-03T17:20:46.028Z,19.38
2023-02-03T17:23:16.342Z,13.55
2023-02-03T17:25:48.567Z,21.40
2023-02-03T17:28:16.180Z,23.33
2023-02-03T17:30:46.436Z,19.60
2023-02-03T17:33:13.579Z,23.77
2023-02-03T17:35:45.527Z,15.00
2023-02-03T17:38:15.331Z,24.13
2023-02-03T17:54:35.806Z,20.15
2023-02-03T17:57:03.298Z,22.08
2023-02-03T17:59:30.475Z,15.32
2023-02-03T18:01:57.553Z,14.85
2023-02-03T18:04:25.059Z,20.58
2023-02-03T18:06:54.549Z,10.93
2023-02-03T18:09:21.788Z,16.15
2023-02-03T18:11:48.808Z,15.25
2023-02-03T18:14:16.921Z,15.93
2023-02-03T18:16:44.578Z,19.35
2023-02-03T18:19:14.867Z,18.52
2023-02-03T18:21:43.296Z,17.40
2023-02-03T18:24:12.580Z,18.55
2023-02-03T18:26:50.444Z,25.75
2023-02-03T18:29:18.263Z,20.63
2023-02-03T18:31:45.990Z,19.83
2023-02-03T18:34:13.971Z,18.65
2023-02-03T18:36:41.690Z,21.30
2023-02-03T18:39:11.196Z,18.25
2023-02-03T18:41:39.962Z,20.45
2023-02-03T19:05:11.908Z,18.38
2023-02-03T19:07:38.999Z,18.10
2023-02-03T19:10:07.311Z,14.68
2023-02-03T19:12:34.295Z,13.65
2023-02-03T19:15:01.343Z,14.48
2023-02-03T19:17:28.538Z,15.98
2023-02-03T19:19:55.716Z,13.43
2023-02-03T19:22:22.886Z,20.50
2023-02-03T19:24:50.044Z,16.70
2023-02-03T19:27:17.136Z,12.82
2023-02-03T19:29:46.591Z,18.10
2023-02-03T19:32:13.980Z,19.90
2023-02-03T19:34:42.139Z,16.45
2023-02-03T19:37:09.720Z,17.10
2023-02-03T19:39:36.961Z,18.63
2023-02-03T19:42:04.238Z,12.10
2023-02-03T19:44:31.428Z,15.98
2023-02-03T19:46:58.607Z,20.05
2023-02-03T19:49:25.740Z,19.55
2023-02-03T19:51:53.524Z,15.80
2023-02-03T19:54:20.715Z,19.65
2023-02-03T19:56:47.914Z,16.77
2023-02-03T19:59:14.979Z,15.48
2023-02-03T20:01:42.749Z,12.15
2023-02-03T20:04:10.071Z,14.75
2023-02-03T20:06:37.193Z,19.05
2023-02-03T20:09:06.422Z,20.00
2023-02-03T20:11:33.944Z,19.58
2023-02-03T20:14:01.142Z,22.52
2023-02-03T20:16:28.235Z,20.17
2023-02-03T20:18:57.411Z,14.77
2023-02-03T20:21:28.002Z,16.73
2023-02-03T20:23:55.207Z,18.85
2023-02-03T20:26:22.429Z,20.13
2023-02-03T20:28:49.816Z,23.98
2023-02-03T20:31:17.025Z,19.77
2023-02-03T20:33:44.242Z,18.70
2023-02-03T20:36:12.491Z,19.65
2023-02-03T20:38:39.563Z,19.75
2023-02-03T20:41:11.431Z,21.42
2023-02-03T20:43:39.152Z,20.50
2023-02-03T20:46:13.655Z,19.83
2023-02-03T20:48:40.834Z,23.27
2023-02-03T20:51:16.165Z,20.65
2023-02-03T20:53:48.123Z,18.35
2023-02-03T20:56:18.295Z,11.88
2023-02-03T20:58:47.075Z,16.73
2023-02-03T21:01:20.168Z,17.83
2023-02-03T21:04:06.506Z,16.05
2023-02-03T21:06:35.106Z,15.50
2023-02-03T21:09:16.391Z,24.75
2023-02-03T21:11:44.099Z,14.60
2023-02-03T21:14:27.303Z,23.33
2023-02-03T21:16:57.296Z,20.45
2023-02-03T21:19:30.636Z,14.30
2023-02-03T21:21:58.604Z,21.93
2023-02-03T21:24:31.932Z,14.48
2023-02-03T21:27:01.242Z,23.50
2023-02-03T21:29:37.024Z,16.77
2023-02-03T21:32:12.187Z,20.80
2023-02-03T21:34:43.874Z,19.65
2023-02-03T21:37:38.120Z,17.48
2023-02-03T21:40:25.956Z,14.88
2023-02-03T21:42:54.224Z,11.45
2023-02-03T21:45:28.647Z,16.38
2023-02-03T21:47:58.326Z,10.65
2023-02-03T21:50:41.647Z,18.20
2023-02-03T21:53:08.776Z,15.02
2023-02-03T21:55:39.987Z,17.95
2023-02-03T21:58:34.936Z,15.63
2023-02-03T22:03:40.059Z,12.48
2023-02-03T22:06:09.952Z,12.45
2023-02-03T22:08:39.714Z,17.52
2023-02-03T22:11:07.328Z,13.10
2023-02-03T22:13:34.741Z,16.80
2023-02-03T22:16:02.055Z,17.00
2023-02-03T22:18:29.020Z,11.90
2023-02-03T22:20:56.088Z,14.93
2023-02-03T22:23:23.366Z,15.43
2023-02-03T22:25:50.545Z,19.13
2023-02-03T22:28:18.626Z,15.20
2023-02-03T22:30:45.879Z,22.77
2023-02-03T22:33:12.984Z,13.23
2023-02-03T22:35:40.070Z,17.63
2023-02-03T22:38:07.219Z,13.88
2023-02-03T22:40:34.215Z,20.73
2023-02-03T22:43:01.318Z,19.23
2023-02-03T22:45:28.435Z,16.25
2023-02-03T22:47:57.557Z,18.38
2023-02-03T22:50:34.644Z,20.80
2023-02-03T22:53:04.367Z,15.90
2023-02-03T22:55:32.252Z,23.67
2023-02-03T22:57:59.516Z,14.10
2023-02-03T23:00:27.242Z,15.98
2023-02-03T23:02:54.875Z,11.85
2023-02-03T23:05:22.629Z,14.88
2023-02-03T23:07:49.942Z,17.40
2023-02-03T23:10:30.969Z,17.20
2023-02-03T23:13:00.867Z,20.75
2023-02-03T23:15:28.640Z,18.10
2023-02-03T23:17:55.856Z,18.85
2023-02-03T23:20:23.314Z,15.10
2023-02-03T23:22:50.483Z,21.30
2023-02-03T23:25:19.147Z,23.25
2023-02-03T23:27:46.582Z,20.13
2023-02-03T23:30:14.375Z,14.88
2023-02-03T23:32:41.565Z,15.05
2023-02-03T23:35:28.017Z,19.05
2023-02-03T23:37:55.123Z,18.98
2023-02-03T23:40:22.668Z,27.67
2023-02-03T23:42:50.082Z,22.48
2023-02-03T23:45:17.407Z,20.88
2023-02-03T23:47:46.032Z,19.35
2023-02-03T23:50:16.260Z,19.00
2023-02-03T23:52:44.037Z,12.75
2023-02-03T23:55:17.990Z,24.73
2023-02-03T23:57:48.956Z,19.15
